sensor_id;sensor_type;location;lat;lon;timestamp;P1;durP1;ratioP1;P2;durP2;ratioP2
61397;SDS011;47267;48.130;-2.040;2023-05-10T00:01:45;4.95;;;1.08;;
61397;SDS011;47267;48.130;-2.040;2023-05-10T00:04:11;3.28;;;0.90;;
61397;SDS011;47267;48.130;-2.040;2023-05-10T00:06:37;3.28;;;0.73;;
61397;SDS011;47267;48.130;-2.040;2023-05-10T00:09:02;4.97;;;0.90;;
61397;SDS011;47267;48.130;-2.040;2023-05-10T00:11:28;3.67;;;0.90;;
61397;SDS011;47267;48.130;-2.040;2023-05-10T00:13:54;3.85;;;1.10;;
61397;SDS011;47267;48.130;-2.040;2023-05-10T00:16:20;3.65;;;1.00;;
61397;SDS011;47267;48.130;-2.040;2023-05-10T00:18:46;6.57;;;1.02;;
61397;SDS011;47267;48.130;-2.040;2023-05-10T00:21:11;5.95;;;1.50;;
61397;SDS011;47267;48.130;-2.040;2023-05-10T00:23:37;4.30;;;1.10;;
61397;SDS011;47267;48.130;-2.040;2023-05-10T00:26:03;4.20;;;1.02;;
61397;SDS011;47267;48.130;-2.040;2023-05-10T00:28:28;4.90;;;1.20;;
61397;SDS011;47267;48.130;-2.040;2023-05-10T00:30:54;4.45;;;1.23;;
61397;SDS011;47267;48.130;-2.040;2023-05-10T00:33:20;3.33;;;0.90;;
61397;SDS011;47267;48.130;-2.040;2023-05-10T00:35:46;4.75;;;0.93;;
61397;SDS011;47267;48.130;-2.040;2023-05-10T00:38:12;3.40;;;1.10;;
61397;SDS011;47267;48.130;-2.040;2023-05-10T00:40:37;2.90;;;0.95;;
61397;SDS011;47267;48.130;-2.040;2023-05-10T00:43:03;4.43;;;1.10;;
61397;SDS011;47267;48.130;-2.040;2023-05-10T00:45:30;4.53;;;1.10;;
61397;SDS011;47267;48.130;-2.040;2023-05-10T00:48:01;8.35;;;1.55;;
61397;SDS011;47267;48.130;-2.040;2023-05-10T00:50:27;3.58;;;1.10;;
61397;SDS011;47267;48.130;-2.040;2023-05-10T00:52:54;3.72;;;1.15;;
61397;SDS011;47267;48.130;-2.040;2023-05-10T00:55:20;4.78;;;1.20;;
61397;SDS011;47267;48.130;-2.040;2023-05-10T00:57:46;3.75;;;0.90;;
61397;SDS011;47267;48.130;-2.040;2023-05-10T01:00:12;3.58;;;0.90;;
61397;SDS011;47267;48.130;-2.040;2023-05-10T01:02:43;5.05;;;1.05;;
61397;SDS011;47267;48.130;-2.040;2023-05-10T01:05:09;5.57;;;1.25;;
61397;SDS011;47267;48.130;-2.040;2023-05-10T01:07:35;4.05;;;1.00;;
61397;SDS011;47267;48.130;-2.040;2023-05-10T01:10:00;3.28;;;0.80;;
61397;SDS011;47267;48.130;-2.040;2023-05-10T01:12:26;4.43;;;1.40;;
61397;SDS011;47267;48.130;-2.040;2023-05-10T01:14:52;5.32;;;1.20;;
61397;SDS011;47267;48.130;-2.040;2023-05-10T01:17:19;4.43;;;1.02;;
61397;SDS011;47267;48.130;-2.040;2023-05-10T01:19:45;3.65;;;1.08;;
61397;SDS011;47267;48.130;-2.040;2023-05-10T01:25:11;3.90;;;1.20;;
61397;SDS011;47267;48.130;-2.040;2023-05-10T01:36:08;2.40;;;0.82;;
61397;SDS011;47267;48.130;-2.040;2023-05-10T01:42:25;2.67;;;0.80;;
61397;SDS011;47267;48.130;-2.040;2023-05-10T01:44:35;3.60;;;1.17;;
61397;SDS011;47267;48.130;-2.040;2023-05-10T01:47:42;6.03;;;1.50;;
61397;SDS011;47267;48.130;-2.040;2023-05-10T01:50:15;4.53;;;1.17;;
61397;SDS011;47267;48.130;-2.040;2023-05-10T01:52:46;3.50;;;0.93;;
61397;SDS011;47267;48.130;-2.040;2023-05-10T01:55:16;4.40;;;1.10;;
61397;SDS011;47267;48.130;-2.040;2023-05-10T01:57:45;3.50;;;1.00;;
61397;SDS011;47267;48.130;-2.040;2023-05-10T02:00:13;3.72;;;1.08;;
61397;SDS011;47267;48.130;-2.040;2023-05-10T02:02:40;6.85;;;1.50;;
61397;SDS011;47267;48.130;-2.040;2023-05-10T02:05:10;4.15;;;1.05;;
61397;SDS011;47267;48.130;-2.040;2023-05-10T02:07:38;3.70;;;1.10;;
61397;SDS011;47267;48.130;-2.040;2023-05-10T02:10:06;4.35;;;1.10;;
61397;SDS011;47267;48.130;-2.040;2023-05-10T02:12:36;6.47;;;1.40;;
61397;SDS011;47267;48.130;-2.040;2023-05-10T02:15:06;4.32;;;1.40;;
61397;SDS011;47267;48.130;-2.040;2023-05-10T02:17:32;3.85;;;1.23;;
61397;SDS011;47267;48.130;-2.040;2023-05-10T02:20:01;3.65;;;0.90;;
61397;SDS011;47267;48.130;-2.040;2023-05-10T02:22:29;4.63;;;1.10;;
61397;SDS011;47267;48.130;-2.040;2023-05-10T02:24:57;3.22;;;1.30;;
61397;SDS011;47267;48.130;-2.040;2023-05-10T02:27:23;4.95;;;1.35;;
61397;SDS011;47267;48.130;-2.040;2023-05-10T02:29:51;4.13;;;1.00;;
61397;SDS011;47267;48.130;-2.040;2023-05-10T02:32:17;4.80;;;0.93;;
61397;SDS011;47267;48.130;-2.040;2023-05-10T02:34:45;4.30;;;1.10;;
61397;SDS011;47267;48.130;-2.040;2023-05-10T02:37:16;5.28;;;1.30;;
61397;SDS011;47267;48.130;-2.040;2023-05-10T02:39:45;4.07;;;1.35;;
61397;SDS011;47267;48.130;-2.040;2023-05-10T02:42:18;7.75;;;1.50;;
61397;SDS011;47267;48.130;-2.040;2023-05-10T02:44:47;4.57;;;1.27;;
61397;SDS011;47267;48.130;-2.040;2023-05-10T02:47:15;3.95;;;1.30;;
61397;SDS011;47267;48.130;-2.040;2023-05-10T02:49:41;5.53;;;1.40;;
61397;SDS011;47267;48.130;-2.040;2023-05-10T02:52:07;5.40;;;1.10;;
61397;SDS011;47267;48.130;-2.040;2023-05-10T02:54:39;2.70;;;1.00;;
61397;SDS011;47267;48.130;-2.040;2023-05-10T02:57:09;5.07;;;1.27;;
61397;SDS011;47267;48.130;-2.040;2023-05-10T02:59:39;7.40;;;1.58;;
61397;SDS011;47267;48.130;-2.040;2023-05-10T03:02:07;5.05;;;1.30;;
61397;SDS011;47267;48.130;-2.040;2023-05-10T03:04:34;5.18;;;1.48;;
61397;SDS011;47267;48.130;-2.040;2023-05-10T03:07:00;5.15;;;1.10;;
61397;SDS011;47267;48.130;-2.040;2023-05-10T03:09:26;3.22;;;0.93;;
61397;SDS011;47267;48.130;-2.040;2023-05-10T03:17:55;4.28;;;1.20;;
61397;SDS011;47267;48.130;-2.040;2023-05-10T03:20:31;3.83;;;1.20;;
61397;SDS011;47267;48.130;-2.040;2023-05-10T03:23:07;3.00;;;1.10;;
61397;SDS011;47267;48.130;-2.040;2023-05-10T03:25:42;3.22;;;0.85;;
61397;SDS011;47267;48.130;-2.040;2023-05-10T03:28:09;5.35;;;1.33;;
61397;SDS011;47267;48.130;-2.040;2023-05-10T03:30:35;4.25;;;1.27;;
61397;SDS011;47267;48.130;-2.040;2023-05-10T03:33:05;4.50;;;1.08;;
61397;SDS011;47267;48.130;-2.040;2023-05-10T03:35:31;3.40;;;1.13;;
61397;SDS011;47267;48.130;-2.040;2023-05-10T03:37:57;4.95;;;1.35;;
61397;SDS011;47267;48.130;-2.040;2023-05-10T03:40:23;5.65;;;1.40;;
61397;SDS011;47267;48.130;-2.040;2023-05-10T03:42:49;5.72;;;1.77;;
61397;SDS011;47267;48.130;-2.040;2023-05-10T03:45:15;4.63;;;1.00;;
61397;SDS011;47267;48.130;-2.040;2023-05-10T03:47:40;5.18;;;1.40;;
61397;SDS011;47267;48.130;-2.040;2023-05-10T03:50:06;5.40;;;1.23;;
61397;SDS011;47267;48.130;-2.040;2023-05-10T03:52:32;5.20;;;1.45;;
61397;SDS011;47267;48.130;-2.040;2023-05-10T03:54:58;6.25;;;1.92;;
61397;SDS011;47267;48.130;-2.040;2023-05-10T03:57:24;4.50;;;1.30;;
61397;SDS011;47267;48.130;-2.040;2023-05-10T03:59:49;3.67;;;1.10;;
61397;SDS011;47267;48.130;-2.040;2023-05-10T04:02:15;6.28;;;1.60;;
61397;SDS011;47267;48.130;-2.040;2023-05-10T04:04:41;5.38;;;1.40;;
61397;SDS011;47267;48.130;-2.040;2023-05-10T04:07:06;5.20;;;1.52;;
61397;SDS011;47267;48.130;-2.040;2023-05-10T04:09:32;3.95;;;1.17;;
61397;SDS011;47267;48.130;-2.040;2023-05-10T04:11:58;5.05;;;1.40;;
61397;SDS011;47267;48.130;-2.040;2023-05-10T04:14:25;5.93;;;1.25;;
61397;SDS011;47267;48.130;-2.040;2023-05-10T04:16:50;4.93;;;1.58;;
61397;SDS011;47267;48.130;-2.040;2023-05-10T04:19:16;4.28;;;1.60;;
61397;SDS011;47267;48.130;-2.040;2023-05-10T04:21:42;3.08;;;1.40;;
61397;SDS011;47267;48.130;-2.040;2023-05-10T04:24:07;2.40;;;0.95;;
61397;SDS011;47267;48.130;-2.040;2023-05-10T04:26:33;5.25;;;1.70;;
61397;SDS011;47267;48.130;-2.040;2023-05-10T04:28:59;6.45;;;1.52;;
61397;SDS011;47267;48.130;-2.040;2023-05-10T04:31:24;5.32;;;1.73;;
61397;SDS011;47267;48.130;-2.040;2023-05-10T04:33:51;5.20;;;1.45;;
61397;SDS011;47267;48.130;-2.040;2023-05-10T04:36:17;5.43;;;1.40;;
61397;SDS011;47267;48.130;-2.040;2023-05-10T04:38:42;5.05;;;1.27;;
61397;SDS011;47267;48.130;-2.040;2023-05-10T04:41:09;5.75;;;1.48;;
61397;SDS011;47267;48.130;-2.040;2023-05-10T04:43:35;6.30;;;1.60;;
61397;SDS011;47267;48.130;-2.040;2023-05-10T04:46:02;6.35;;;1.52;;
61397;SDS011;47267;48.130;-2.040;2023-05-10T04:48:28;4.05;;;1.27;;
61397;SDS011;47267;48.130;-2.040;2023-05-10T04:50:54;5.75;;;1.45;;
61397;SDS011;47267;48.130;-2.040;2023-05-10T04:53:20;3.22;;;1.10;;
61397;SDS011;47267;48.130;-2.040;2023-05-10T04:55:46;4.32;;;1.20;;
61397;SDS011;47267;48.130;-2.040;2023-05-10T04:58:11;5.80;;;1.27;;
61397;SDS011;47267;48.130;-2.040;2023-05-10T05:00:37;4.30;;;1.10;;
61397;SDS011;47267;48.130;-2.040;2023-05-10T05:03:03;4.45;;;1.48;;
61397;SDS011;47267;48.130;-2.040;2023-05-10T05:05:30;6.05;;;1.40;;
61397;SDS011;47267;48.130;-2.040;2023-05-10T05:07:55;5.80;;;1.23;;
61397;SDS011;47267;48.130;-2.040;2023-05-10T05:10:21;4.82;;;1.58;;
61397;SDS011;47267;48.130;-2.040;2023-05-10T05:12:47;4.57;;;1.63;;
61397;SDS011;47267;48.130;-2.040;2023-05-10T05:15:12;6.65;;;1.38;;
61397;SDS011;47267;48.130;-2.040;2023-05-10T05:17:40;4.43;;;1.20;;
61397;SDS011;47267;48.130;-2.040;2023-05-10T05:20:05;4.75;;;1.40;;
61397;SDS011;47267;48.130;-2.040;2023-05-10T05:22:32;4.43;;;1.20;;
61397;SDS011;47267;48.130;-2.040;2023-05-10T05:24:57;3.58;;;1.17;;
61397;SDS011;47267;48.130;-2.040;2023-05-10T05:27:23;4.90;;;1.48;;
61397;SDS011;47267;48.130;-2.040;2023-05-10T05:29:54;4.28;;;1.48;;
61397;SDS011;47267;48.130;-2.040;2023-05-10T05:32:21;6.10;;;1.55;;
61397;SDS011;47267;48.130;-2.040;2023-05-10T05:34:47;4.57;;;1.50;;
61397;SDS011;47267;48.130;-2.040;2023-05-10T05:37:16;6.25;;;1.75;;
61397;SDS011;47267;48.130;-2.040;2023-05-10T05:39:42;4.72;;;1.50;;
61397;SDS011;47267;48.130;-2.040;2023-05-10T05:42:08;5.70;;;1.50;;
61397;SDS011;47267;48.130;-2.040;2023-05-10T05:44:35;4.60;;;1.50;;
61397;SDS011;47267;48.130;-2.040;2023-05-10T05:47:00;6.68;;;1.70;;
61397;SDS011;47267;48.130;-2.040;2023-05-10T05:49:26;9.35;;;2.00;;
61397;SDS011;47267;48.130;-2.040;2023-05-10T05:51:52;8.65;;;1.98;;
61397;SDS011;47267;48.130;-2.040;2023-05-10T05:54:18;5.53;;;1.85;;
61397;SDS011;47267;48.130;-2.040;2023-05-10T05:56:44;7.57;;;2.00;;
61397;SDS011;47267;48.130;-2.040;2023-05-10T05:59:12;7.43;;;2.03;;
61397;SDS011;47267;48.130;-2.040;2023-05-10T06:01:38;10.23;;;2.25;;
61397;SDS011;47267;48.130;-2.040;2023-05-10T06:04:03;6.45;;;1.92;;
61397;SDS011;47267;48.130;-2.040;2023-05-10T06:06:29;9.93;;;2.63;;
61397;SDS011;47267;48.130;-2.040;2023-05-10T06:08:55;14.02;;;2.90;;
61397;SDS011;47267;48.130;-2.040;2023-05-10T06:11:21;7.65;;;1.88;;
61397;SDS011;47267;48.130;-2.040;2023-05-10T06:13:47;9.07;;;2.53;;
61397;SDS011;47267;48.130;-2.040;2023-05-10T06:16:12;10.25;;;2.47;;
61397;SDS011;47267;48.130;-2.040;2023-05-10T06:18:38;8.85;;;2.75;;
61397;SDS011;47267;48.130;-2.040;2023-05-10T06:21:04;8.45;;;2.40;;
61397;SDS011;47267;48.130;-2.040;2023-05-10T06:23:30;8.82;;;2.50;;
61397;SDS011;47267;48.130;-2.040;2023-05-10T06:25:55;12.60;;;3.00;;
61397;SDS011;47267;48.130;-2.040;2023-05-10T06:28:21;9.43;;;2.70;;
61397;SDS011;47267;48.130;-2.040;2023-05-10T06:30:46;8.68;;;2.67;;
61397;SDS011;47267;48.130;-2.040;2023-05-10T06:33:12;10.90;;;2.88;;
61397;SDS011;47267;48.130;-2.040;2023-05-10T06:35:38;10.57;;;2.58;;
61397;SDS011;47267;48.130;-2.040;2023-05-10T06:38:04;8.48;;;3.22;;
61397;SDS011;47267;48.130;-2.040;2023-05-10T06:40:30;9.18;;;2.95;;
61397;SDS011;47267;48.130;-2.040;2023-05-10T06:42:55;9.38;;;2.80;;
61397;SDS011;47267;48.130;-2.040;2023-05-10T06:45:21;7.68;;;1.95;;
61397;SDS011;47267;48.130;-2.040;2023-05-10T06:47:47;9.43;;;2.78;;
61397;SDS011;47267;48.130;-2.040;2023-05-10T06:50:12;8.45;;;2.30;;
61397;SDS011;47267;48.130;-2.040;2023-05-10T06:52:38;8.40;;;2.03;;
61397;SDS011;47267;48.130;-2.040;2023-05-10T06:55:04;9.48;;;2.60;;
61397;SDS011;47267;48.130;-2.040;2023-05-10T06:57:30;7.07;;;2.08;;
61397;SDS011;47267;48.130;-2.040;2023-05-10T06:59:57;9.90;;;2.40;;
61397;SDS011;47267;48.130;-2.040;2023-05-10T07:02:23;7.63;;;2.38;;
61397;SDS011;47267;48.130;-2.040;2023-05-10T07:04:49;10.60;;;2.42;;
61397;SDS011;47267;48.130;-2.040;2023-05-10T07:07:16;10.15;;;2.92;;
61397;SDS011;47267;48.130;-2.040;2023-05-10T07:09:42;6.78;;;2.00;;
61397;SDS011;47267;48.130;-2.040;2023-05-10T07:12:08;9.38;;;2.63;;
61397;SDS011;47267;48.130;-2.040;2023-05-10T07:14:33;8.38;;;2.10;;
61397;SDS011;47267;48.130;-2.040;2023-05-10T07:16:59;10.18;;;2.17;;
61397;SDS011;47267;48.130;-2.040;2023-05-10T07:19:25;7.60;;;2.20;;
61397;SDS011;47267;48.130;-2.040;2023-05-10T07:21:50;10.35;;;2.55;;
61397;SDS011;47267;48.130;-2.040;2023-05-10T07:24:16;8.50;;;2.47;;
61397;SDS011;47267;48.130;-2.040;2023-05-10T07:26:42;7.25;;;2.38;;
61397;SDS011;47267;48.130;-2.040;2023-05-10T07:29:08;7.25;;;2.22;;
61397;SDS011;47267;48.130;-2.040;2023-05-10T07:31:33;9.70;;;2.55;;
61397;SDS011;47267;48.130;-2.040;2023-05-10T07:33:59;8.38;;;2.58;;
61397;SDS011;47267;48.130;-2.040;2023-05-10T07:36:25;11.10;;;2.58;;
61397;SDS011;47267;48.130;-2.040;2023-05-10T07:38:51;9.10;;;2.22;;
61397;SDS011;47267;48.130;-2.040;2023-05-10T07:41:17;5.97;;;1.90;;
61397;SDS011;47267;48.130;-2.040;2023-05-10T07:43:42;8.75;;;2.20;;
61397;SDS011;47267;48.130;-2.040;2023-05-10T07:46:08;7.72;;;2.33;;
61397;SDS011;47267;48.130;-2.040;2023-05-10T07:48:36;8.80;;;2.10;;
61397;SDS011;47267;48.130;-2.040;2023-05-10T07:51:02;6.93;;;2.22;;
61397;SDS011;47267;48.130;-2.040;2023-05-10T07:53:27;8.25;;;2.20;;
61397;SDS011;47267;48.130;-2.040;2023-05-10T07:55:54;6.72;;;2.00;;
61397;SDS011;47267;48.130;-2.040;2023-05-10T07:58:22;5.63;;;2.28;;
61397;SDS011;47267;48.130;-2.040;2023-05-10T08:00:48;7.70;;;1.90;;
61397;SDS011;47267;48.130;-2.040;2023-05-10T08:03:14;7.55;;;1.95;;
61397;SDS011;47267;48.130;-2.040;2023-05-10T08:05:40;8.55;;;2.17;;
61397;SDS011;47267;48.130;-2.040;2023-05-10T08:08:06;6.80;;;2.13;;
61397;SDS011;47267;48.130;-2.040;2023-05-10T08:10:31;7.60;;;2.10;;
61397;SDS011;47267;48.130;-2.040;2023-05-10T08:12:57;8.10;;;2.28;;
61397;SDS011;47267;48.130;-2.040;2023-05-10T08:15:23;5.50;;;1.80;;
61397;SDS011;47267;48.130;-2.040;2023-05-10T08:17:50;7.03;;;1.92;;
61397;SDS011;47267;48.130;-2.040;2023-05-10T08:20:16;8.13;;;2.10;;
61397;SDS011;47267;48.130;-2.040;2023-05-10T08:22:44;5.68;;;2.10;;
61397;SDS011;47267;48.130;-2.040;2023-05-10T08:25:10;5.25;;;2.13;;
61397;SDS011;47267;48.130;-2.040;2023-05-10T08:27:36;7.35;;;2.20;;
61397;SDS011;47267;48.130;-2.040;2023-05-10T08:30:02;7.40;;;2.10;;
61397;SDS011;47267;48.130;-2.040;2023-05-10T08:32:28;9.10;;;2.10;;
61397;SDS011;47267;48.130;-2.040;2023-05-10T08:34:54;9.02;;;2.10;;
61397;SDS011;47267;48.130;-2.040;2023-05-10T08:37:20;5.47;;;1.80;;
61397;SDS011;47267;48.130;-2.040;2023-05-10T08:39:47;7.53;;;2.00;;
61397;SDS011;47267;48.130;-2.040;2023-05-10T08:42:13;5.40;;;1.92;;
61397;SDS011;47267;48.130;-2.040;2023-05-10T08:44:44;6.55;;;1.85;;
61397;SDS011;47267;48.130;-2.040;2023-05-10T08:47:13;5.95;;;1.75;;
61397;SDS011;47267;48.130;-2.040;2023-05-10T08:49:41;7.07;;;1.98;;
61397;SDS011;47267;48.130;-2.040;2023-05-10T08:52:08;6.78;;;1.55;;
61397;SDS011;47267;48.130;-2.040;2023-05-10T08:54:36;7.07;;;2.15;;
61397;SDS011;47267;48.130;-2.040;2023-05-10T08:57:02;7.60;;;2.17;;
61397;SDS011;47267;48.130;-2.040;2023-05-10T08:59:28;8.32;;;2.33;;
61397;SDS011;47267;48.130;-2.040;2023-05-10T09:01:55;6.57;;;1.90;;
61397;SDS011;47267;48.130;-2.040;2023-05-10T09:04:23;7.80;;;1.65;;
61397;SDS011;47267;48.130;-2.040;2023-05-10T09:06:49;8.55;;;2.10;;
61397;SDS011;47267;48.130;-2.040;2023-05-10T09:09:15;9.13;;;2.10;;
61397;SDS011;47267;48.130;-2.040;2023-05-10T09:11:42;9.48;;;1.83;;
61397;SDS011;47267;48.130;-2.040;2023-05-10T09:14:09;5.15;;;1.70;;
61397;SDS011;47267;48.130;-2.040;2023-05-10T09:16:37;8.13;;;2.30;;
61397;SDS011;47267;48.130;-2.040;2023-05-10T09:19:03;5.70;;;1.98;;
61397;SDS011;47267;48.130;-2.040;2023-05-10T09:21:28;6.45;;;1.80;;
61397;SDS011;47267;48.130;-2.040;2023-05-10T09:23:56;5.32;;;1.90;;
61397;SDS011;47267;48.130;-2.040;2023-05-10T09:26:22;5.75;;;1.60;;
61397;SDS011;47267;48.130;-2.040;2023-05-10T09:28:54;5.93;;;1.85;;
61397;SDS011;47267;48.130;-2.040;2023-05-10T09:31:21;6.88;;;1.40;;
61397;SDS011;47267;48.130;-2.040;2023-05-10T09:33:48;6.70;;;1.60;;
61397;SDS011;47267;48.130;-2.040;2023-05-10T09:36:15;7.05;;;1.98;;
61397;SDS011;47267;48.130;-2.040;2023-05-10T09:38:48;5.20;;;1.67;;
61397;SDS011;47267;48.130;-2.040;2023-05-10T09:41:16;5.85;;;1.40;;
61397;SDS011;47267;48.130;-2.040;2023-05-10T09:43:49;5.38;;;1.80;;
61397;SDS011;47267;48.130;-2.040;2023-05-10T09:46:15;3.90;;;1.73;;
61397;SDS011;47267;48.130;-2.040;2023-05-10T09:48:42;4.93;;;1.63;;
61397;SDS011;47267;48.130;-2.040;2023-05-10T09:51:09;6.20;;;1.70;;
61397;SDS011;47267;48.130;-2.040;2023-05-10T09:53:35;4.22;;;1.38;;
61397;SDS011;47267;48.130;-2.040;2023-05-10T09:56:01;5.60;;;1.73;;
61397;SDS011;47267;48.130;-2.040;2023-05-10T09:58:27;4.13;;;1.27;;
61397;SDS011;47267;48.130;-2.040;2023-05-10T10:00:52;5.13;;;1.90;;
61397;SDS011;47267;48.130;-2.040;2023-05-10T10:03:20;4.82;;;1.50;;
61397;SDS011;47267;48.130;-2.040;2023-05-10T10:05:46;3.92;;;1.48;;
61397;SDS011;47267;48.130;-2.040;2023-05-10T10:08:13;6.32;;;1.77;;
61397;SDS011;47267;48.130;-2.040;2023-05-10T10:10:39;5.28;;;1.38;;
61397;SDS011;47267;48.130;-2.040;2023-05-10T10:13:06;4.40;;;1.60;;
61397;SDS011;47267;48.130;-2.040;2023-05-10T10:15:33;6.32;;;1.67;;
61397;SDS011;47267;48.130;-2.040;2023-05-10T10:17:59;5.82;;;1.88;;
61397;SDS011;47267;48.130;-2.040;2023-05-10T10:20:25;5.20;;;1.60;;
61397;SDS011;47267;48.130;-2.040;2023-05-10T10:22:52;5.10;;;1.35;;
61397;SDS011;47267;48.130;-2.040;2023-05-10T10:25:18;5.97;;;1.70;;
61397;SDS011;47267;48.130;-2.040;2023-05-10T10:27:59;5.88;;;1.60;;
61397;SDS011;47267;48.130;-2.040;2023-05-10T10:35:55;6.18;;;1.65;;
61397;SDS011;47267;48.130;-2.040;2023-05-10T10:38:25;5.72;;;1.58;;
61397;SDS011;47267;48.130;-2.040;2023-05-10T10:41:08;4.70;;;1.80;;
61397;SDS011;47267;48.130;-2.040;2023-05-10T10:43:37;5.30;;;1.52;;
61397;SDS011;47267;48.130;-2.040;2023-05-10T10:46:10;6.63;;;1.60;;
61397;SDS011;47267;48.130;-2.040;2023-05-10T10:48:37;3.67;;;1.13;;
61397;SDS011;47267;48.130;-2.040;2023-05-10T10:51:03;5.07;;;1.35;;
61397;SDS011;47267;48.130;-2.040;2023-05-10T10:53:28;5.20;;;1.50;;
61397;SDS011;47267;48.130;-2.040;2023-05-10T10:58:34;3.75;;;1.40;;
61397;SDS011;47267;48.130;-2.040;2023-05-10T11:03:40;5.40;;;1.55;;
61397;SDS011;47267;48.130;-2.040;2023-05-10T11:06:28;3.85;;;1.30;;
61397;SDS011;47267;48.130;-2.040;2023-05-10T11:08:54;5.47;;;1.35;;
61397;SDS011;47267;48.130;-2.040;2023-05-10T11:11:20;5.15;;;1.60;;
61397;SDS011;47267;48.130;-2.040;2023-05-10T11:13:47;4.07;;;1.30;;
61397;SDS011;47267;48.130;-2.040;2023-05-10T11:16:20;6.38;;;1.30;;
61397;SDS011;47267;48.130;-2.040;2023-05-10T11:21:26;5.38;;;1.50;;
61397;SDS011;47267;48.130;-2.040;2023-05-10T11:23:52;4.20;;;1.17;;
61397;SDS011;47267;48.130;-2.040;2023-05-10T11:26:23;4.70;;;1.25;;
61397;SDS011;47267;48.130;-2.040;2023-05-10T11:28:51;4.35;;;1.30;;
61397;SDS011;47267;48.130;-2.040;2023-05-10T11:31:20;3.15;;;1.25;;
61397;SDS011;47267;48.130;-2.040;2023-05-10T11:33:47;3.90;;;1.20;;
61397;SDS011;47267;48.130;-2.040;2023-05-10T11:36:17;3.63;;;1.10;;
61397;SDS011;47267;48.130;-2.040;2023-05-10T11:38:48;4.10;;;1.27;;
61397;SDS011;47267;48.130;-2.040;2023-05-10T11:41:14;4.35;;;1.20;;
61397;SDS011;47267;48.130;-2.040;2023-05-10T11:43:42;2.00;;;0.82;;
61397;SDS011;47267;48.130;-2.040;2023-05-10T11:46:08;5.30;;;1.00;;
61397;SDS011;47267;48.130;-2.040;2023-05-10T11:48:35;4.00;;;1.40;;
61397;SDS011;47267;48.130;-2.040;2023-05-10T11:51:03;4.13;;;1.00;;
61397;SDS011;47267;48.130;-2.040;2023-05-10T11:53:32;3.28;;;0.90;;
61397;SDS011;47267;48.130;-2.040;2023-05-10T11:56:07;4.05;;;1.02;;
61397;SDS011;47267;48.130;-2.040;2023-05-10T11:58:35;3.20;;;1.17;;
61397;SDS011;47267;48.130;-2.040;2023-05-10T12:01:03;3.85;;;0.90;;
61397;SDS011;47267;48.130;-2.040;2023-05-10T12:03:30;3.70;;;1.13;;
61397;SDS011;47267;48.130;-2.040;2023-05-10T12:05:56;1.80;;;0.80;;
61397;SDS011;47267;48.130;-2.040;2023-05-10T12:08:23;4.25;;;1.00;;
61397;SDS011;47267;48.130;-2.040;2023-05-10T12:10:50;3.17;;;1.10;;
61397;SDS011;47267;48.130;-2.040;2023-05-10T12:13:17;4.78;;;1.17;;
61397;SDS011;47267;48.130;-2.040;2023-05-10T12:15:45;3.15;;;0.85;;
61397;SDS011;47267;48.130;-2.040;2023-05-10T12:18:12;2.83;;;1.02;;
61397;SDS011;47267;48.130;-2.040;2023-05-10T12:20:39;3.25;;;1.05;;
61397;SDS011;47267;48.130;-2.040;2023-05-10T12:23:05;5.57;;;1.10;;
61397;SDS011;47267;48.130;-2.040;2023-05-10T12:25:33;3.00;;;0.70;;
61397;SDS011;47267;48.130;-2.040;2023-05-10T12:28:02;3.65;;;1.23;;
61397;SDS011;47267;48.130;-2.040;2023-05-10T12:30:30;5.03;;;1.17;;
61397;SDS011;47267;48.130;-2.040;2023-05-10T12:33:00;2.97;;;0.98;;
61397;SDS011;47267;48.130;-2.040;2023-05-10T12:35:32;3.03;;;1.10;;
61397;SDS011;47267;48.130;-2.040;2023-05-10T12:37:59;3.10;;;1.08;;
61397;SDS011;47267;48.130;-2.040;2023-05-10T12:40:25;2.90;;;0.88;;
61397;SDS011;47267;48.130;-2.040;2023-05-10T12:42:50;2.47;;;0.82;;
61397;SDS011;47267;48.130;-2.040;2023-05-10T12:45:17;2.92;;;1.00;;
61397;SDS011;47267;48.130;-2.040;2023-05-10T12:47:43;7.45;;;1.42;;
61397;SDS011;47267;48.130;-2.040;2023-05-10T12:50:09;3.25;;;0.90;;
61397;SDS011;47267;48.130;-2.040;2023-05-10T12:52:35;2.53;;;1.08;;
61397;SDS011;47267;48.130;-2.040;2023-05-10T12:55:01;2.60;;;0.70;;
61397;SDS011;47267;48.130;-2.040;2023-05-10T12:57:28;1.90;;;0.88;;
61397;SDS011;47267;48.130;-2.040;2023-05-10T12:59:54;5.40;;;1.08;;
61397;SDS011;47267;48.130;-2.040;2023-05-10T13:02:20;3.28;;;0.90;;
61397;SDS011;47267;48.130;-2.040;2023-05-10T13:04:47;4.05;;;1.02;;
61397;SDS011;47267;48.130;-2.040;2023-05-10T13:07:13;2.80;;;1.17;;
61397;SDS011;47267;48.130;-2.040;2023-05-10T13:09:39;2.03;;;0.68;;
61397;SDS011;47267;48.130;-2.040;2023-05-10T13:12:05;2.47;;;0.70;;
61397;SDS011;47267;48.130;-2.040;2023-05-10T13:14:31;2.63;;;0.80;;
61397;SDS011;47267;48.130;-2.040;2023-05-10T13:16:56;1.63;;;0.68;;
61397;SDS011;47267;48.130;-2.040;2023-05-10T13:19:22;3.60;;;1.00;;
61397;SDS011;47267;48.130;-2.040;2023-05-10T13:21:48;3.08;;;1.10;;
61397;SDS011;47267;48.130;-2.040;2023-05-10T13:24:14;2.88;;;1.00;;
61397;SDS011;47267;48.130;-2.040;2023-05-10T13:26:41;1.58;;;0.70;;
61397;SDS011;47267;48.130;-2.040;2023-05-10T13:29:07;2.08;;;0.75;;
61397;SDS011;47267;48.130;-2.040;2023-05-10T13:31:33;2.10;;;0.70;;
61397;SDS011;47267;48.130;-2.040;2023-05-10T13:33:59;2.25;;;0.80;;
61397;SDS011;47267;48.130;-2.040;2023-05-10T13:36:25;3.53;;;0.93;;
61397;SDS011;47267;48.130;-2.040;2023-05-10T13:38:51;1.75;;;0.70;;
61397;SDS011;47267;48.130;-2.040;2023-05-10T13:41:17;2.28;;;1.00;;
61397;SDS011;47267;48.130;-2.040;2023-05-10T13:43:43;2.72;;;0.80;;
61397;SDS011;47267;48.130;-2.040;2023-05-10T13:46:08;2.03;;;0.70;;
61397;SDS011;47267;48.130;-2.040;2023-05-10T13:48:34;3.53;;;0.88;;
61397;SDS011;47267;48.130;-2.040;2023-05-10T13:51:01;1.95;;;0.68;;
61397;SDS011;47267;48.130;-2.040;2023-05-10T13:53:28;1.88;;;0.88;;
61397;SDS011;47267;48.130;-2.040;2023-05-10T13:55:53;3.10;;;0.80;;
61397;SDS011;47267;48.130;-2.040;2023-05-10T13:58:19;4.38;;;1.17;;
61397;SDS011;47267;48.130;-2.040;2023-05-10T14:00:45;2.72;;;1.05;;
61397;SDS011;47267;48.130;-2.040;2023-05-10T14:03:10;2.50;;;0.98;;
61397;SDS011;47267;48.130;-2.040;2023-05-10T14:05:36;2.65;;;1.00;;
61397;SDS011;47267;48.130;-2.040;2023-05-10T14:08:02;1.92;;;0.70;;
61397;SDS011;47267;48.130;-2.040;2023-05-10T14:10:27;2.63;;;0.80;;
61397;SDS011;47267;48.130;-2.040;2023-05-10T14:12:53;1.75;;;0.80;;
61397;SDS011;47267;48.130;-2.040;2023-05-10T14:15:19;1.35;;;0.65;;
61397;SDS011;47267;48.130;-2.040;2023-05-10T14:17:44;3.25;;;0.88;;
61397;SDS011;47267;48.130;-2.040;2023-05-10T14:20:10;2.50;;;0.75;;
61397;SDS011;47267;48.130;-2.040;2023-05-10T14:22:36;2.22;;;0.70;;
61397;SDS011;47267;48.130;-2.040;2023-05-10T14:25:02;2.38;;;0.73;;
61397;SDS011;47267;48.130;-2.040;2023-05-10T14:27:28;3.70;;;0.90;;
61397;SDS011;47267;48.130;-2.040;2023-05-10T14:29:54;3.22;;;1.02;;
61397;SDS011;47267;48.130;-2.040;2023-05-10T14:32:20;2.35;;;0.70;;
61397;SDS011;47267;48.130;-2.040;2023-05-10T14:34:45;2.25;;;0.60;;
61397;SDS011;47267;48.130;-2.040;2023-05-10T14:37:11;1.42;;;0.73;;
61397;SDS011;47267;48.130;-2.040;2023-05-10T14:39:38;1.95;;;0.70;;
61397;SDS011;47267;48.130;-2.040;2023-05-10T14:42:04;2.60;;;0.75;;
61397;SDS011;47267;48.130;-2.040;2023-05-10T14:44:29;3.85;;;0.70;;
61397;SDS011;47267;48.130;-2.040;2023-05-10T14:46:55;1.85;;;0.80;;
61397;SDS011;47267;48.130;-2.040;2023-05-10T14:49:21;2.40;;;0.88;;
61397;SDS011;47267;48.130;-2.040;2023-05-10T14:51:49;2.22;;;0.80;;
61397;SDS011;47267;48.130;-2.040;2023-05-10T14:54:15;3.20;;;0.77;;
61397;SDS011;47267;48.130;-2.040;2023-05-10T14:56:41;2.53;;;0.77;;
61397;SDS011;47267;48.130;-2.040;2023-05-10T14:59:07;2.13;;;0.60;;
61397;SDS011;47267;48.130;-2.040;2023-05-10T15:01:33;2.63;;;0.80;;
61397;SDS011;47267;48.130;-2.040;2023-05-10T15:04:02;3.30;;;1.02;;
61397;SDS011;47267;48.130;-2.040;2023-05-10T15:06:31;2.85;;;1.00;;